createdAt,value
2022-10-09T00:00:47.732Z,99.90
2022-10-09T00:03:14.616Z,99.90
2022-10-09T00:05:41.443Z,99.90
2022-10-09T00:08:08.240Z,99.90
2022-10-09T00:10:35.031Z,99.90
2022-10-09T00:13:01.739Z,99.90
2022-10-09T00:15:28.471Z,99.90
2022-10-09T00:17:55.216Z,99.90
2022-10-09T00:20:21.972Z,99.90
2022-10-09T00:22:48.856Z,99.90
2022-10-09T00:25:19.249Z,99.90
2022-10-09T00:27:45.963Z,99.90
2022-10-09T00:30:12.948Z,99.90
2022-10-09T00:32:39.713Z,99.90
2022-10-09T00:35:06.725Z,99.90
2022-10-09T00:37:33.466Z,99.90
2022-10-09T00:40:00.555Z,99.90
2022-10-09T00:42:27.272Z,99.90
2022-10-09T00:44:57.682Z,99.90
2022-10-09T00:47:42.632Z,99.90
2022-10-09T00:50:23.188Z,99.90
2022-10-09T00:52:52.458Z,99.90
2022-10-09T00:55:19.192Z,99.90
2022-10-09T00:57:45.935Z,99.90
2022-10-09T01:00:13.267Z,99.90
2022-10-09T01:02:40.118Z,99.90
2022-10-09T01:05:08.208Z,99.90
2022-10-09T01:07:48.922Z,99.90
2022-10-09T01:10:30.648Z,99.90
2022-10-09T01:13:23.048Z,99.90
2022-10-09T01:16:01.913Z,99.90
2022-10-09T01:18:37.528Z,99.90
2022-10-09T01:21:09.038Z,99.90
2022-10-09T01:23:47.826Z,99.90
2022-10-09T01:26:55.682Z,99.90
2022-10-09T01:29:22.918Z,99.90
2022-10-09T01:31:49.974Z,99.90
2022-10-09T01:34:17.388Z,99.90
2022-10-09T01:36:44.439Z,99.90
2022-10-09T01:39:13.910Z,99.90
2022-10-09T01:41:40.669Z,99.90
2022-10-09T01:44:24.401Z,99.90
2022-10-09T01:46:51.151Z,99.90
2022-10-09T01:49:28.883Z,99.90
2022-10-09T01:52:23.055Z,99.90
2022-10-09T01:55:01.758Z,99.90
2022-10-09T01:57:41.525Z,99.90
2022-10-09T02:00:09.957Z,99.90
2022-10-09T02:02:36.738Z,99.90
2022-10-09T02:05:03.874Z,99.90
2022-10-09T02:07:30.936Z,99.90
2022-10-09T02:09:58.156Z,99.90
2022-10-09T02:12:24.873Z,99.90
2022-10-09T02:14:51.618Z,99.90
2022-10-09T02:17:19.831Z,99.90
2022-10-09T02:19:56.627Z,99.90
2022-10-09T02:22:30.652Z,99.90
2022-10-09T02:25:01.710Z,99.90
2022-10-09T02:27:28.489Z,99.90
2022-10-09T02:29:55.222Z,99.90
2022-10-09T02:32:22.957Z,99.90
2022-10-09T02:34:49.683Z,99.90
2022-10-09T02:37:16.470Z,99.90
2022-10-09T02:39:43.825Z,99.90
2022-10-09T02:42:10.650Z,99.90
2022-10-09T02:44:37.443Z,99.90
2022-10-09T02:47:04.259Z,99.90
2022-10-09T02:49:30.966Z,99.90
2022-10-09T02:51:57.727Z,99.90
2022-10-09T02:54:24.479Z,99.90
2022-10-09T02:56:51.277Z,99.90
2022-10-09T02:59:18.053Z,99.90
2022-10-09T03:01:44.877Z,99.90
2022-10-09T03:04:11.658Z,99.90
2022-10-09T03:06:38.386Z,99.90
2022-10-09T03:09:05.171Z,99.90
2022-10-09T03:11:31.883Z,99.90
2022-10-09T03:13:58.629Z,99.90
2022-10-09T03:16:25.843Z,99.90
2022-10-09T03:18:52.842Z,99.90
2022-10-09T03:21:24.036Z,99.90
2022-10-09T03:23:50.921Z,99.90
2022-10-09T03:26:20.029Z,99.90
2022-10-09T03:28:48.446Z,99.90
2022-10-09T03:31:33.443Z,99.90
2022-10-09T03:34:02.947Z,99.90
2022-10-09T03:36:29.672Z,99.90
2022-10-09T03:38:56.399Z,99.90
2022-10-09T03:41:23.095Z,99.90
2022-10-09T03:43:49.862Z,99.90
2022-10-09T03:46:16.672Z,99.90
2022-10-09T03:48:43.438Z,99.90
2022-10-09T03:51:10.167Z,99.90
2022-10-09T03:53:36.902Z,99.90
2022-10-09T03:56:03.648Z,99.90
2022-10-09T03:58:30.398Z,99.90
2022-10-09T04:00:57.196Z,99.90
2022-10-09T04:03:24.050Z,99.90
2022-10-09T04:05:50.804Z,99.90
2022-10-09T04:08:17.587Z,99.90
2022-10-09T04:10:44.391Z,99.90
2022-10-09T04:13:11.134Z,99.90
2022-10-09T04:15:37.919Z,99.90
2022-10-09T04:18:04.933Z,99.90
2022-10-09T04:20:31.937Z,99.90
2022-10-09T04:22:58.749Z,99.90
2022-10-09T04:25:25.471Z,99.90
2022-10-09T04:27:52.236Z,99.90
2022-10-09T04:30:18.986Z,99.90
2022-10-09T04:32:48.182Z,99.90
2022-10-09T04:35:15.640Z,99.90
2022-10-09T04:37:42.539Z,99.90
2022-10-09T04:40:09.639Z,99.90
2022-10-09T04:42:36.349Z,99.90
2022-10-09T04:45:03.242Z,99.90
2022-10-09T04:47:31.076Z,99.90
2022-10-09T04:49:57.811Z,99.90
2022-10-09T04:52:24.550Z,99.90
2022-10-09T04:54:51.465Z,99.90
2022-10-09T04:57:18.213Z,99.90
2022-10-09T04:59:44.950Z,99.90
2022-10-09T05:02:11.807Z,99.90
2022-10-09T05:04:38.747Z,99.90
2022-10-09T05:07:05.486Z,99.90
2022-10-09T05:09:32.210Z,99.90
2022-10-09T05:11:58.958Z,99.90
2022-10-09T05:14:25.675Z,99.90
2022-10-09T05:17:12.556Z,99.90
2022-10-09T05:19:51.139Z,99.90
2022-10-09T05:22:18.949Z,99.90
2022-10-09T05:24:49.351Z,99.90
2022-10-09T05:27:19.659Z,99.90
2022-10-09T05:29:46.378Z,99.90
2022-10-09T05:32:13.558Z,99.90
2022-10-09T05:34:49.618Z,99.90
2022-10-09T05:37:16.362Z,99.90
2022-10-09T05:39:43.081Z,99.90
2022-10-09T05:42:09.827Z,99.90
2022-10-09T05:44:37.039Z,99.90
2022-10-09T05:47:03.851Z,99.90
2022-10-09T05:49:30.685Z,99.90
2022-10-09T05:51:57.465Z,99.90
2022-10-09T05:54:27.341Z,99.90
2022-10-09T05:56:54.122Z,99.90
2022-10-09T05:59:20.967Z,99.90
2022-10-09T06:01:49.721Z,99.90
2022-10-09T06:04:18.264Z,99.90
2022-10-09T06:06:47.535Z,99.90
2022-10-09T06:09:15.338Z,99.90
2022-10-09T06:11:42.116Z,99.90
2022-10-09T06:14:09.930Z,99.90
2022-10-09T06:16:38.270Z,99.90
2022-10-09T06:19:05.455Z,99.90
2022-10-09T06:21:32.799Z,99.90
2022-10-09T06:24:00.827Z,99.90
2022-10-09T06:26:31.063Z,99.90
2022-10-09T06:28:59.061Z,99.80
2022-10-09T06:31:27.601Z,99.90
2022-10-09T06:33:54.604Z,99.10
2022-10-09T06:36:25.836Z,98.40
2022-10-09T06:39:10.187Z,98.40
2022-10-09T06:41:49.427Z,96.40
2022-10-09T06:44:27.933Z,96.60
2022-10-09T06:47:03.299Z,96.00
2022-10-09T06:49:37.782Z,95.90
2022-10-09T06:52:20.593Z,95.40
2022-10-09T06:55:02.081Z,95.40
2022-10-09T06:57:40.187Z,94.40
2022-10-09T07:00:19.391Z,93.40
2022-10-09T07:03:02.438Z,92.60
2022-10-09T07:05:41.064Z,92.40
2022-10-09T07:08:18.741Z,92.70
2022-10-09T07:10:52.865Z,92.50
2022-10-09T07:13:32.624Z,91.20
2022-10-09T07:16:11.752Z,90.90
2022-10-09T07:18:58.058Z,90.30
2022-10-09T07:21:37.437Z,88.50
2022-10-09T07:24:22.339Z,87.70
2022-10-09T07:27:12.890Z,85.00
2022-10-09T07:29:53.222Z,83.60
2022-10-09T07:32:31.048Z,82.20
2022-10-09T07:35:16.415Z,80.50
2022-10-09T07:37:58.165Z,80.40
2022-10-09T07:40:37.393Z,80.10
2022-10-09T07:43:17.424Z,81.20
2022-10-09T07:45:57.880Z,80.00
2022-10-09T07:48:42.823Z,79.50
2022-10-09T07:51:29.043Z,78.10
2022-10-09T07:54:12.628Z,78.60
2022-10-09T07:57:02.138Z,78.80
2022-10-09T07:59:44.661Z,79.40
2022-10-09T08:02:27.040Z,80.20
2022-10-09T08:05:12.095Z,78.80
2022-10-09T08:07:56.008Z,78.30
2022-10-09T08:10:42.162Z,78.90
2022-10-09T08:13:19.904Z,78.20
2022-10-09T08:15:59.894Z,77.10
2022-10-09T08:18:38.499Z,77.50
2022-10-09T08:21:20.976Z,76.50
2022-10-09T08:24:09.577Z,76.60
2022-10-09T08:26:51.310Z,77.40
2022-10-09T08:29:30.325Z,78.30
2022-10-09T08:32:14.637Z,77.90
2022-10-09T08:34:56.713Z,76.30
2022-10-09T08:37:39.478Z,76.00
2022-10-09T08:40:29.264Z,75.80
2022-10-09T08:43:12.447Z,77.20
2022-10-09T08:45:48.283Z,77.00
2022-10-09T08:48:29.422Z,77.40
2022-10-09T08:51:15.093Z,77.50
2022-10-09T08:54:03.598Z,78.30
2022-10-09T08:56:49.537Z,76.30
2022-10-09T08:59:32.130Z,76.70
2022-10-09T09:02:16.893Z,77.70
2022-10-09T09:05:23.033Z,78.40
2022-10-09T09:08:06.154Z,78.20
2022-10-09T09:10:45.522Z,77.60
2022-10-09T09:14:04.106Z,77.30
2022-10-09T09:17:03.977Z,75.00
2022-10-09T09:20:00.685Z,75.80
2022-10-09T09:22:50.060Z,76.10
2022-10-09T09:25:37.588Z,76.10
2022-10-09T09:28:34.830Z,76.20
2022-10-09T09:31:30.040Z,77.20
2022-10-09T09:34:17.060Z,78.20
2022-10-09T09:37:15.400Z,77.20
2022-10-09T09:43:05.138Z,76.30
2022-10-09T09:45:46.878Z,76.50
2022-10-09T09:48:37.713Z,76.10
2022-10-09T09:51:33.424Z,76.60
2022-10-09T09:54:23.029Z,76.10
2022-10-09T09:57:15.828Z,75.80
2022-10-09T10:00:00.513Z,74.40
2022-10-09T10:02:46.264Z,70.10
2022-10-09T10:05:45.115Z,70.90
2022-10-09T10:08:38.518Z,70.30
2022-10-09T10:11:20.215Z,71.80
2022-10-09T10:14:05.304Z,72.10
2022-10-09T10:16:50.038Z,72.10
2022-10-09T12:20:15.150Z,69.00
2022-10-09T12:26:08.494Z,69.80
2022-10-09T12:28:59.235Z,69.90
2022-10-09T12:31:51.955Z,70.10
2022-10-09T12:34:32.894Z,70.50
2022-10-09T12:37:13.721Z,70.40
2022-10-09T12:39:40.838Z,71.00
2022-10-09T12:42:09.674Z,71.20
2022-10-09T12:44:39.754Z,71.40
2022-10-09T12:47:15.513Z,70.70
2022-10-09T12:50:18.830Z,71.20
2022-10-09T12:52:52.924Z,70.60
2022-10-09T12:55:25.656Z,70.00
2022-10-09T12:57:53.095Z,69.90
2022-10-09T13:00:19.948Z,70.10
2022-10-09T13:02:46.894Z,69.90
2022-10-09T13:05:13.914Z,69.90
2022-10-09T13:07:44.151Z,70.50
2022-10-09T13:10:21.232Z,71.00
2022-10-09T13:12:50.683Z,70.60
2022-10-09T13:15:33.570Z,70.00
2022-10-09T13:18:00.468Z,70.20
2022-10-09T13:20:28.745Z,70.60
2022-10-09T13:23:03.338Z,71.00
2022-10-09T13:25:34.173Z,71.40
2022-10-09T13:28:01.659Z,71.60
2022-10-09T13:30:28.588Z,71.70
2022-10-09T13:32:55.429Z,71.70
2022-10-09T13:35:22.172Z,70.40
2022-10-09T13:37:49.191Z,70.40
2022-10-09T13:40:18.189Z,69.30
2022-10-09T13:42:52.592Z,68.40
2022-10-09T13:45:19.376Z,68.40
2022-10-09T13:47:46.088Z,68.80
2022-10-09T13:50:16.282Z,69.10
2022-10-09T13:52:43.084Z,69.30
2022-10-09T13:55:10.625Z,69.40
2022-10-09T13:57:37.575Z,69.40
2022-10-09T14:00:07.892Z,69.90
2022-10-09T14:02:34.657Z,69.80
2022-10-09T14:05:01.395Z,70.50
2022-10-09T14:07:31.275Z,70.30
2022-10-09T14:09:58.009Z,70.10
2022-10-09T14:12:24.770Z,70.20
2022-10-09T14:14:53.205Z,70.40
2022-10-09T14:17:20.030Z,70.70
2022-10-09T14:19:46.836Z,71.00
2022-10-09T14:22:14.774Z,71.30
2022-10-09T14:24:41.604Z,72.10
2022-10-09T14:27:08.325Z,72.40
2022-10-09T14:29:35.090Z,72.40
2022-10-09T14:32:01.809Z,72.50
2022-10-09T14:34:28.617Z,73.00
2022-10-09T14:36:55.385Z,73.20
2022-10-09T14:39:22.202Z,73.60
2022-10-09T14:41:49.119Z,73.80
2022-10-09T14:44:15.846Z,73.80
2022-10-09T14:46:42.598Z,73.30
2022-10-09T14:49:13.509Z,72.50
2022-10-09T14:51:40.503Z,72.20
2022-10-09T14:54:07.520Z,72.40
2022-10-09T14:56:34.432Z,72.50
2022-10-09T14:59:01.272Z,72.50
2022-10-09T15:01:32.680Z,72.30
2022-10-09T15:04:03.643Z,72.50
2022-10-09T15:06:30.778Z,72.40
2022-10-09T15:09:04.648Z,72.50
2022-10-09T15:11:32.632Z,72.40
2022-10-09T15:13:59.407Z,72.20
2022-10-09T15:16:26.198Z,71.60
2022-10-09T15:18:53.885Z,69.50
2022-10-09T15:21:22.980Z,69.90
2022-10-09T15:23:50.049Z,69.40
2022-10-09T15:26:16.812Z,69.50
2022-10-09T15:28:44.409Z,69.50
2022-10-09T15:31:25.212Z,68.90
2022-10-09T15:34:12.658Z,68.10
2022-10-09T15:37:02.846Z,68.50
2022-10-09T15:39:33.706Z,68.90
2022-10-09T15:42:17.627Z,68.50
2022-10-09T15:44:52.483Z,68.70
2022-10-09T15:47:27.144Z,68.40
2022-10-09T15:50:09.578Z,68.30
2022-10-09T15:52:36.378Z,68.70
2022-10-09T15:55:17.595Z,68.80
2022-10-09T15:57:53.233Z,68.80
2022-10-09T16:00:34.971Z,68.50
2022-10-09T16:03:09.736Z,68.10
2022-10-09T16:05:49.128Z,68.00
2022-10-09T16:08:28.557Z,68.50
2022-10-09T16:13:51.161Z,68.70
2022-10-09T16:16:31.678Z,68.80
2022-10-09T16:19:11.565Z,69.10
2022-10-09T16:21:50.642Z,69.50
2022-10-09T16:24:29.124Z,69.90
2022-10-09T16:27:13.695Z,70.20
2022-10-09T16:29:52.712Z,70.70
2022-10-09T16:32:37.965Z,71.30
2022-10-09T16:35:17.045Z,71.50
2022-10-09T16:37:54.704Z,71.50
2022-10-09T16:41:00.947Z,71.80
2022-10-09T16:43:31.189Z,71.90
2022-10-09T16:46:24.622Z,72.60
2022-10-09T16:49:06.664Z,73.50
2022-10-09T16:51:45.776Z,74.00
2022-10-09T16:54:28.440Z,74.80
2022-10-09T16:57:04.715Z,75.70
2022-10-09T16:59:46.309Z,76.50
2022-10-09T17:02:29.222Z,77.20
2022-10-09T17:05:10.074Z,77.70
2022-10-09T17:07:53.130Z,79.30
2022-10-09T17:10:35.112Z,80.00
2022-10-09T17:13:01.833Z,81.10
2022-10-09T17:15:29.035Z,81.50
2022-10-09T17:18:22.134Z,82.20
2022-10-09T17:20:48.885Z,82.70
2022-10-09T17:23:30.016Z,83.20
2022-10-09T17:25:57.229Z,84.20
2022-10-09T17:28:24.605Z,84.70
2022-10-09T17:33:42.924Z,85.70
2022-10-09T17:36:10.289Z,86.10
2022-10-09T17:38:42.632Z,86.60
2022-10-09T17:41:11.215Z,87.20
2022-10-09T17:43:38.799Z,87.80
2022-10-09T17:46:08.378Z,88.30
2022-10-09T17:48:35.836Z,89.10
2022-10-09T17:51:03.987Z,89.90
2022-10-09T17:53:31.151Z,90.30
2022-10-09T17:56:01.619Z,90.60
2022-10-09T17:58:28.346Z,90.90
2022-10-09T18:00:55.864Z,91.30
2022-10-09T18:03:22.685Z,91.50
2022-10-09T18:05:49.998Z,91.90
2022-10-09T18:08:17.816Z,92.20
2022-10-09T18:10:44.821Z,92.50
2022-10-09T18:13:11.664Z,92.80
2022-10-09T18:15:42.638Z,93.50
2022-10-09T18:18:09.888Z,93.60
2022-10-09T18:20:37.394Z,93.80
2022-10-09T18:23:04.395Z,94.00
2022-10-09T18:25:31.127Z,94.50
2022-10-09T18:27:57.940Z,94.80
2022-10-09T18:30:24.879Z,95.40
2022-10-09T18:32:51.884Z,95.80
2022-10-09T18:35:18.902Z,96.30
2022-10-09T18:37:45.661Z,97.00
2022-10-09T18:40:14.024Z,97.60
2022-10-09T18:42:40.856Z,98.10
2022-10-09T18:45:10.039Z,98.70
2022-10-09T18:47:36.917Z,99.40
2022-10-09T18:50:06.130Z,99.90
2022-10-09T18:52:33.696Z,99.90
2022-10-09T18:55:00.433Z,99.90
2022-10-09T18:57:27.206Z,99.90
2022-10-09T18:59:54.454Z,99.90
2022-10-09T19:02:26.246Z,99.90
2022-10-09T19:04:54.492Z,99.90
2022-10-09T19:07:21.356Z,99.90
2022-10-09T19:09:56.340Z,99.90
2022-10-09T19:12:24.221Z,99.90
2022-10-09T19:14:51.140Z,99.90
2022-10-09T19:17:17.865Z,99.90
2022-10-09T19:19:44.666Z,99.90
2022-10-09T19:22:15.904Z,99.90
2022-10-09T19:24:44.932Z,99.90
2022-10-09T19:27:11.718Z,99.90
2022-10-09T19:29:38.566Z,99.90
2022-10-09T19:32:05.381Z,99.90
2022-10-09T19:34:32.224Z,99.90
2022-10-09T19:36:59.088Z,99.90
2022-10-09T19:39:25.995Z,99.90
2022-10-09T19:41:52.766Z,99.90
2022-10-09T19:44:19.696Z,99.90
2022-10-09T19:46:46.794Z,99.90
2022-10-09T19:49:13.703Z,99.90
2022-10-09T19:51:40.480Z,99.90
2022-10-09T19:54:08.031Z,99.90
2022-10-09T19:56:35.061Z,99.90
2022-10-09T19:59:03.032Z,99.90
2022-10-09T20:01:30.143Z,99.90
2022-10-09T20:04:02.088Z,99.90
2022-10-09T20:06:28.910Z,99.90
2022-10-09T20:08:56.310Z,99.90
2022-10-09T20:11:23.355Z,99.90
2022-10-09T20:13:55.534Z,99.90
2022-10-09T20:16:23.509Z,99.90
2022-10-09T20:18:50.259Z,99.90
2022-10-09T20:21:17.857Z,99.90
2022-10-09T20:23:44.753Z,99.90
2022-10-09T20:26:16.431Z,99.90
2022-10-09T20:28:46.313Z,99.90
2022-10-09T20:31:24.444Z,99.90
2022-10-09T20:33:51.355Z,99.90
2022-10-09T20:36:26.872Z,99.90
2022-10-09T20:38:57.751Z,99.90
2022-10-09T20:41:36.772Z,99.90
2022-10-09T20:44:14.633Z,99.90
2022-10-09T20:46:57.803Z,99.90
2022-10-09T20:49:36.016Z,99.90
2022-10-09T20:52:05.925Z,99.90
2022-10-09T20:54:32.761Z,99.90
2022-10-09T20:56:59.633Z,99.90
2022-10-09T20:59:26.397Z,99.90
2022-10-09T21:01:55.395Z,99.90
2022-10-09T21:04:22.168Z,99.90
2022-10-09T21:06:48.894Z,99.90
2022-10-09T21:09:15.630Z,99.90
2022-10-09T21:11:45.636Z,99.90
2022-10-09T21:14:12.430Z,99.90
2022-10-09T21:16:39.355Z,99.90
2022-10-09T21:19:07.110Z,99.90
2022-10-09T21:21:34.195Z,99.90
2022-10-09T21:24:01.362Z,99.90
2022-10-09T21:26:29.123Z,99.90
2022-10-09T21:28:59.641Z,99.90
2022-10-09T21:31:29.943Z,99.90
2022-10-09T21:33:57.356Z,99.90
2022-10-09T21:37:01.741Z,99.90
2022-10-09T21:39:28.982Z,99.90
2022-10-09T21:41:56.191Z,99.90
2022-10-09T21:44:23.072Z,99.90
2022-10-09T21:46:49.985Z,99.90
2022-10-09T21:49:24.595Z,99.90
2022-10-09T21:51:51.460Z,99.90
2022-10-09T21:54:18.279Z,99.90
2022-10-09T21:56:45.069Z,99.90
2022-10-09T21:59:12.117Z,99.90
2022-10-09T22:01:38.983Z,99.90
2022-10-09T22:04:06.015Z,99.90
2022-10-09T22:06:32.770Z,99.90
2022-10-09T22:08:59.910Z,99.90
2022-10-09T22:11:26.679Z,99.90
2022-10-09T22:13:55.301Z,99.90
2022-10-09T22:16:22.211Z,99.90
2022-10-09T22:18:49.191Z,99.90
2022-10-09T22:21:15.986Z,99.90
2022-10-09T22:23:42.972Z,99.90
2022-10-09T22:26:15.551Z,99.90
2022-10-09T22:28:42.778Z,99.90
2022-10-09T22:31:30.034Z,99.90
2022-10-09T22:33:58.517Z,99.90
2022-10-09T22:36:27.159Z,99.90
2022-10-09T22:38:58.214Z,99.90
2022-10-09T22:41:25.337Z,99.90
2022-10-09T22:43:53.683Z,99.90
2022-10-09T22:46:23.194Z,99.90
2022-10-09T22:48:50.174Z,99.90
2022-10-09T22:51:17.811Z,99.90
2022-10-09T22:53:45.144Z,99.90
2022-10-09T22:56:16.905Z,99.90
2022-10-09T22:58:44.375Z,99.90
2022-10-09T23:01:13.488Z,99.90
2022-10-09T23:03:40.525Z,99.90
2022-10-09T23:06:09.205Z,99.90
2022-10-09T23:08:38.063Z,99.90
2022-10-09T23:11:05.389Z,99.90
2022-10-09T23:13:32.710Z,99.90
2022-10-09T23:16:00.873Z,99.90
2022-10-09T23:18:28.198Z,99.90
2022-10-09T23:20:55.212Z,99.90
2022-10-09T23:23:22.331Z,99.90
2022-10-09T23:25:49.280Z,99.90
2022-10-09T23:28:16.369Z,99.90
2022-10-09T23:30:43.372Z,99.90
2022-10-09T23:33:10.228Z,99.90
2022-10-09T23:35:43.392Z,99.90
2022-10-09T23:38:10.069Z,99.90
2022-10-09T23:40:36.820Z,99.90
2022-10-09T23:43:03.552Z,99.90
2022-10-09T23:45:30.362Z,99.90
2022-10-09T23:47:57.124Z,99.90
2022-10-09T23:50:23.900Z,99.90
2022-10-09T23:52:51.082Z,99.90
2022-10-09T23:55:18.070Z,99.90
2022-10-09T23:57:44.827Z,99.90
